Portada
METAR-TAF:

METAR-TAF

Aeroports :

New Haven, Connecticut, Estats Units d'Amèrica

latitud: 41-15-50N, longitud: 072-53-14W, altitud: 4 m

Observació

L'informe es va fer fa 31 minuts, a les 08:53 UTC
Vent 5 kt del Nord
Temperatura 6°C
Humitat 75%
Pressió 1011 hPa
Visibilitat: 16.1 km
Cel cobert a una alçada de 3000 ft

METAR: KHVN 200853Z AUTO 35005KT 10SM OVC030 06/02 A2985 RMK AO2 SLP109 T00610017 53004

Hora: 04:24 (09:24 UTC)


TAF: manca

Observacions i pronòstics meteorològics de més de 4000 aeroports (METAR i TAF).

Les estacions disponibles són els punts grocs i vermells al mapa.

Posi el ratolí al punt desitjat per veure el nom de l'estació.

Feu clic per veure les observacions i els pronòstics meteorològics.

Per canviar el mapa: feu clic els botons verds amb una creu de color negre per apropar; al botó verd amb un guió per allunyar la imatge; o en les fletxes verdes per a mapes adjacents.


METAR-TAF: